Daytona Beach, Florida
Current Conditions -  °F | °C
As of 12:03 PM on Wednesday 26 Nov 2014 (Local Time) from KDAB Reporting Station
Overcast Overcast  
Wind Chill: 55°   Ceiling: 11000
Heat Index: 55°   Visibility: 10mi
Dew Point: 52°   Wind: 9mph
Humidity: 89%   Direction: 280°W
Pressure: 30.13"   Gusts: NA
Location:  29.2°N, 81.04°W
Report Text: KDAB 261703Z 28008KT 10SM FEW008 OVC110 13/11 A3013 RMK AO2 T01280111
Loading
Personal Weather Stations






























Interactive Weather Map New forecast layout! Learn more

10-Day Weather Forecast

Advertisements
Track Severe Weather on mobile